createdAt,value
2023-05-16T00:00:10.956Z,0.52
2023-05-16T00:01:10.957Z,0.53
2023-05-16T00:02:11.109Z,0.53
2023-05-16T00:03:11.071Z,0.53
2023-05-16T00:04:11.178Z,0.53
2023-05-16T00:05:11.076Z,0.53
2023-05-16T00:06:11.106Z,0.53
2023-05-16T00:07:11.171Z,0.52
2023-05-16T00:08:11.174Z,0.53
2023-05-16T00:09:11.208Z,0.53
2023-05-16T00:10:11.244Z,0.53
2023-05-16T00:11:11.298Z,0.53
2023-05-16T00:12:11.364Z,0.53
2023-05-16T00:13:11.441Z,0.54
2023-05-16T00:14:11.505Z,0.52
2023-05-16T00:15:11.543Z,0.53
2023-05-16T00:16:11.565Z,0.53
2023-05-16T00:17:11.818Z,0.54
2023-05-16T00:18:11.634Z,0.53
2023-05-16T00:19:11.719Z,0.53
2023-05-16T00:20:11.670Z,0.54
2023-05-16T00:21:11.703Z,0.53
2023-05-16T00:22:11.757Z,0.53
2023-05-16T00:23:11.784Z,0.51
2023-05-16T00:24:11.802Z,0.53
2023-05-16T00:25:11.868Z,0.52
2023-05-16T00:26:11.939Z,0.53
2023-05-16T00:27:11.956Z,0.50
2023-05-16T00:28:11.984Z,0.53
2023-05-16T00:29:12.001Z,0.50
2023-05-16T00:30:12.065Z,0.53
2023-05-16T00:31:12.078Z,0.52
2023-05-16T00:32:12.139Z,0.54
2023-05-16T00:33:12.273Z,0.52
2023-05-16T00:34:12.218Z,0.52
2023-05-16T00:35:12.224Z,0.54
2023-05-16T00:36:12.285Z,0.53
2023-05-16T00:37:12.293Z,0.54
2023-05-16T00:38:12.352Z,0.52
2023-05-16T00:39:12.410Z,0.52
2023-05-16T00:40:12.499Z,0.54
2023-05-16T00:41:12.473Z,0.53
2023-05-16T00:42:12.490Z,0.53
2023-05-16T00:43:12.567Z,0.53
2023-05-16T00:44:12.536Z,0.52
2023-05-16T00:45:12.610Z,0.53
2023-05-16T00:46:12.648Z,0.52
2023-05-16T00:47:12.675Z,0.54
2023-05-16T00:48:12.785Z,0.53
2023-05-16T00:49:12.721Z,0.53
2023-05-16T00:50:12.737Z,0.52
2023-05-16T00:51:12.794Z,0.53
2023-05-16T00:52:12.823Z,0.53
2023-05-16T00:53:12.857Z,0.52
2023-05-16T00:54:12.915Z,0.53
2023-05-16T00:55:12.937Z,0.53
2023-05-16T00:56:12.954Z,0.53
2023-05-16T00:57:12.989Z,0.53
2023-05-16T00:58:13.007Z,0.53
2023-05-16T00:59:13.024Z,0.53
2023-05-16T01:00:13.070Z,0.51
2023-05-16T01:01:13.100Z,0.53
2023-05-16T01:02:13.196Z,0.52
2023-05-16T01:03:13.272Z,0.53
2023-05-16T01:04:13.221Z,0.53
2023-05-16T01:05:13.527Z,0.52
2023-05-16T01:06:13.283Z,0.54
2023-05-16T01:07:13.312Z,0.52
2023-05-16T01:08:13.322Z,0.53
2023-05-16T01:09:13.361Z,0.52
2023-05-16T01:10:13.411Z,0.53
2023-05-16T01:11:13.488Z,0.53
2023-05-16T01:12:13.484Z,0.53
2023-05-16T01:13:13.531Z,0.54
2023-05-16T01:14:13.551Z,0.53
2023-05-16T01:15:13.621Z,0.52
2023-05-16T01:16:13.669Z,0.53
2023-05-16T01:17:13.626Z,0.53
2023-05-16T01:18:13.695Z,0.52
2023-05-16T01:19:13.828Z,0.53
2023-05-16T01:20:13.760Z,0.52
2023-05-16T01:21:13.782Z,0.51
2023-05-16T01:22:13.889Z,0.52
2023-05-16T01:23:13.851Z,0.53
2023-05-16T01:24:13.904Z,0.52
2023-05-16T01:25:13.915Z,0.53
2023-05-16T01:26:13.976Z,0.53
2023-05-16T01:27:14.017Z,0.53
2023-05-16T01:28:14.089Z,0.53
2023-05-16T01:29:14.116Z,0.52
2023-05-16T01:30:14.145Z,0.52
2023-05-16T01:31:14.209Z,0.53
2023-05-16T01:32:14.196Z,0.53
2023-05-16T01:33:14.406Z,0.53
2023-05-16T01:34:14.260Z,0.53
2023-05-16T01:35:14.288Z,0.52
2023-05-16T01:36:14.303Z,0.53
2023-05-16T01:37:14.365Z,0.53
2023-05-16T01:38:14.436Z,0.52
2023-05-16T01:39:14.463Z,0.53
2023-05-16T01:40:14.493Z,0.53
2023-05-16T01:41:14.519Z,0.53
2023-05-16T01:42:14.563Z,0.53
2023-05-16T01:43:14.614Z,0.53
2023-05-16T01:44:14.654Z,0.52
2023-05-16T01:45:14.693Z,0.52
2023-05-16T01:46:14.753Z,0.52
2023-05-16T01:47:14.781Z,0.51
2023-05-16T01:48:14.826Z,0.52
2023-05-16T01:49:14.830Z,0.52
2023-05-16T01:50:14.866Z,0.51
2023-05-16T01:51:14.910Z,0.53
2023-05-16T01:52:14.985Z,0.52
2023-05-16T01:53:15.034Z,0.53
2023-05-16T01:54:15.077Z,0.52
2023-05-16T01:55:15.097Z,0.52
2023-05-16T01:56:15.210Z,0.52
2023-05-16T01:57:15.163Z,0.53
2023-05-16T01:58:15.239Z,0.51
2023-05-16T01:59:15.286Z,0.52
2023-05-16T02:00:15.311Z,0.53
2023-05-16T02:01:15.422Z,0.51
2023-05-16T02:02:15.369Z,0.53
2023-05-16T02:03:15.569Z,0.53
2023-05-16T02:04:15.480Z,0.52
2023-05-16T02:05:15.434Z,0.52
2023-05-16T02:06:15.491Z,0.52
2023-05-16T02:07:15.534Z,0.52
2023-05-16T02:08:15.542Z,0.52
2023-05-16T02:09:15.589Z,0.52
2023-05-16T02:10:15.614Z,0.52
2023-05-16T02:11:15.649Z,0.53
2023-05-16T02:12:15.718Z,0.52
2023-05-16T02:13:15.753Z,0.52
2023-05-16T02:14:15.794Z,0.53
2023-05-16T02:15:15.846Z,0.52
2023-05-16T02:16:15.879Z,0.52
2023-05-16T02:17:15.916Z,0.53
2023-05-16T02:18:15.955Z,0.52
2023-05-16T02:19:16.092Z,0.53
2023-05-16T02:20:16.031Z,0.53
2023-05-16T02:21:16.567Z,0.53
2023-05-16T02:22:16.111Z,0.53
2023-05-16T02:23:16.154Z,0.52
2023-05-16T02:24:16.212Z,0.53
2023-05-16T02:25:16.246Z,0.50
2023-05-16T02:26:16.269Z,0.53
2023-05-16T02:27:16.322Z,0.52
2023-05-16T02:28:16.334Z,0.53
2023-05-16T02:29:16.376Z,0.52
2023-05-16T02:30:16.425Z,0.53
2023-05-16T02:31:16.503Z,0.53
2023-05-16T02:32:16.467Z,0.54
2023-05-16T02:33:16.504Z,0.53
2023-05-16T02:34:16.543Z,0.54
2023-05-16T02:35:16.576Z,0.53
2023-05-16T02:36:16.646Z,0.53
2023-05-16T02:37:16.668Z,0.54
2023-05-16T02:38:16.699Z,0.53
2023-05-16T02:39:16.742Z,0.53
2023-05-16T02:40:16.813Z,0.53
2023-05-16T02:41:16.884Z,0.53
2023-05-16T02:42:16.903Z,0.53
2023-05-16T02:43:16.921Z,0.51
2023-05-16T02:44:16.988Z,0.53
2023-05-16T02:45:17.069Z,0.53
2023-05-16T02:46:17.118Z,0.54
2023-05-16T02:47:17.111Z,0.53
2023-05-16T02:48:17.167Z,0.53
2023-05-16T02:49:17.202Z,0.53
2023-05-16T02:50:17.254Z,0.53
2023-05-16T02:51:17.363Z,0.53
2023-05-16T02:52:17.383Z,0.54
2023-05-16T02:53:17.418Z,0.52
2023-05-16T02:54:17.488Z,0.53
2023-05-16T02:55:22.187Z,0.52
2023-05-16T02:56:18.524Z,0.52
2023-05-16T02:57:17.529Z,0.53
2023-05-16T02:58:17.497Z,0.53
2023-05-16T02:59:17.480Z,0.53
2023-05-16T03:00:18.783Z,0.53
2023-05-16T03:01:17.579Z,0.53
2023-05-16T03:02:17.466Z,0.53
2023-05-16T03:03:17.537Z,0.53
2023-05-16T03:04:17.461Z,0.53
2023-05-16T03:05:17.450Z,0.52
2023-05-16T03:06:17.450Z,0.53
2023-05-16T03:07:17.488Z,0.53
2023-05-16T03:08:17.546Z,0.52
2023-05-16T03:09:17.578Z,0.53
2023-05-16T03:10:17.615Z,0.53
2023-05-16T03:11:17.647Z,0.52
2023-05-16T03:12:17.666Z,0.53
2023-05-16T03:13:17.725Z,0.53
2023-05-16T03:14:17.758Z,0.52
2023-05-16T03:15:17.795Z,0.53
2023-05-16T03:16:17.933Z,0.52
2023-05-16T03:17:17.876Z,0.52
2023-05-16T03:18:17.928Z,0.52
2023-05-16T03:19:18.066Z,0.53
2023-05-16T03:20:18.008Z,0.53
2023-05-16T03:21:18.053Z,0.52
2023-05-16T03:22:18.115Z,0.52
2023-05-16T03:23:18.180Z,0.53
2023-05-16T03:24:18.302Z,0.52
2023-05-16T03:25:18.262Z,0.53
2023-05-16T03:26:18.331Z,0.52
2023-05-16T03:27:18.366Z,0.53
2023-05-16T03:28:18.437Z,0.53
2023-05-16T03:29:18.446Z,0.52
2023-05-16T03:30:18.545Z,0.53
2023-05-16T03:31:18.680Z,0.53
2023-05-16T03:32:18.687Z,0.52
2023-05-16T03:33:18.712Z,0.52
2023-05-16T03:34:19.562Z,0.53
2023-05-16T03:35:18.799Z,0.52
2023-05-16T03:36:18.885Z,0.52
2023-05-16T03:37:18.889Z,0.53
2023-05-16T03:38:18.921Z,0.52
2023-05-16T03:39:19.008Z,0.52
2023-05-16T03:40:19.030Z,0.52
2023-05-16T03:41:19.075Z,0.53
2023-05-16T03:42:19.111Z,0.52
2023-05-16T03:43:19.172Z,0.52
2023-05-16T03:44:19.240Z,0.52
2023-05-16T03:45:19.276Z,0.52
2023-05-16T03:46:19.423Z,0.52
2023-05-16T03:47:19.365Z,0.52
2023-05-16T03:48:19.393Z,0.53
2023-05-16T03:49:19.414Z,0.53
2023-05-16T03:50:19.463Z,0.52
2023-05-16T03:51:19.512Z,0.52
2023-05-16T03:52:19.539Z,0.53
2023-05-16T03:53:19.610Z,0.53
2023-05-16T03:54:19.625Z,0.52
2023-05-16T03:55:19.808Z,0.53
2023-05-16T03:56:19.771Z,0.53
2023-05-16T03:57:19.801Z,0.52
2023-05-16T03:58:19.854Z,0.53
2023-05-16T03:59:19.914Z,0.53
2023-05-16T04:00:19.954Z,0.52
2023-05-16T04:01:19.967Z,0.53
2023-05-16T04:02:20.116Z,0.53
2023-05-16T04:03:20.188Z,0.52
2023-05-16T04:04:20.124Z,0.52
2023-05-16T04:05:20.174Z,0.53
2023-05-16T04:06:20.267Z,0.52
2023-05-16T04:07:22.457Z,0.53
2023-05-16T04:08:20.248Z,0.54
2023-05-16T04:09:20.253Z,0.53
2023-05-16T04:10:20.233Z,0.53
2023-05-16T04:11:20.260Z,0.52
2023-05-16T04:12:20.225Z,0.53
2023-05-16T04:13:20.261Z,0.53
2023-05-16T04:14:20.205Z,0.53
2023-05-16T04:15:20.216Z,0.52
2023-05-16T04:16:20.221Z,0.53
2023-05-16T04:17:20.206Z,0.54
2023-05-16T04:18:20.189Z,0.52
2023-05-16T04:19:20.220Z,0.53
2023-05-16T04:20:20.167Z,0.52
2023-05-16T04:21:20.184Z,0.52
2023-05-16T04:22:20.156Z,0.53
2023-05-16T04:23:20.164Z,0.52
2023-05-16T04:24:20.143Z,0.52
2023-05-16T04:25:20.155Z,0.51
2023-05-16T04:26:20.165Z,0.53
2023-05-16T04:27:20.236Z,0.52
2023-05-16T04:28:20.142Z,0.52
2023-05-16T04:29:20.113Z,0.52
2023-05-16T04:30:20.138Z,0.53
2023-05-16T04:31:20.113Z,0.52
2023-05-16T04:32:20.128Z,0.50
2023-05-16T04:33:20.098Z,0.51
2023-05-16T04:34:20.113Z,0.52
2023-05-16T04:35:20.077Z,0.52
2023-05-16T04:36:20.074Z,0.51
2023-05-16T04:37:20.072Z,0.52
2023-05-16T04:38:20.071Z,0.52
2023-05-16T04:39:20.051Z,0.52
2023-05-16T04:40:20.086Z,0.53
2023-05-16T04:41:20.055Z,0.52
2023-05-16T04:42:20.058Z,0.52
2023-05-16T04:43:20.094Z,0.52
2023-05-16T04:44:20.016Z,0.51
2023-05-16T04:45:20.026Z,0.52
2023-05-16T04:46:20.038Z,0.52
2023-05-16T04:47:20.106Z,0.52
2023-05-16T04:48:20.026Z,0.51
2023-05-16T04:49:20.034Z,0.52
2023-05-16T04:50:20.061Z,0.52
2023-05-16T04:51:20.112Z,0.52
2023-05-16T04:52:20.141Z,0.51
2023-05-16T04:53:20.171Z,0.52
2023-05-16T04:54:20.240Z,0.52
2023-05-16T04:55:20.270Z,0.52
2023-05-16T04:56:20.321Z,0.52
2023-05-16T04:57:20.357Z,0.52
2023-05-16T04:58:20.411Z,0.53
2023-05-16T04:59:20.468Z,0.53
2023-05-16T05:00:20.500Z,0.52
2023-05-16T05:01:20.648Z,0.51
2023-05-16T05:02:20.602Z,0.53
2023-05-16T05:03:20.690Z,0.52
2023-05-16T05:04:20.681Z,0.51
2023-05-16T05:05:20.857Z,0.51
2023-05-16T05:06:20.824Z,0.52
2023-05-16T05:07:20.854Z,0.52
2023-05-16T05:08:20.855Z,0.51
2023-05-16T05:09:20.904Z,0.51
2023-05-16T05:10:20.947Z,0.52
2023-05-16T05:11:20.994Z,0.51
2023-05-16T05:12:21.064Z,0.52
2023-05-16T05:13:21.142Z,0.52
2023-05-16T05:14:21.139Z,0.51
2023-05-16T05:15:21.193Z,0.53
2023-05-16T05:16:21.243Z,0.52
2023-05-16T05:17:21.322Z,0.51
2023-05-16T05:18:21.336Z,0.51
2023-05-16T05:19:21.373Z,0.52
2023-05-16T05:20:21.373Z,0.52
2023-05-16T05:21:21.398Z,0.51
2023-05-16T05:22:21.473Z,0.52
2023-05-16T05:23:21.584Z,0.52
2023-05-16T05:24:21.553Z,0.52
2023-05-16T05:25:21.670Z,0.52
2023-05-16T05:26:22.201Z,0.51
2023-05-16T05:27:21.768Z,0.52
2023-05-16T05:28:21.727Z,0.51
2023-05-16T05:29:21.745Z,0.52
2023-05-16T05:30:21.782Z,0.52
2023-05-16T05:31:21.897Z,0.52
2023-05-16T05:32:21.950Z,0.52
2023-05-16T05:33:21.957Z,0.50
2023-05-16T05:34:22.096Z,0.50
2023-05-16T05:35:22.066Z,0.50
2023-05-16T05:36:22.063Z,0.51
2023-05-16T05:37:22.048Z,0.52
2023-05-16T05:38:22.122Z,0.53
2023-05-16T05:39:22.210Z,0.59
2023-05-16T05:40:22.134Z,0.61
2023-05-16T05:41:22.145Z,0.61
2023-05-16T05:42:22.232Z,0.59
2023-05-16T05:43:22.267Z,0.59
2023-05-16T05:44:22.340Z,0.61
2023-05-16T05:45:22.415Z,0.62
2023-05-16T05:46:22.508Z,0.66
2023-05-16T05:47:22.486Z,0.69
2023-05-16T05:48:23.184Z,0.68
2023-05-16T05:49:22.620Z,0.74
2023-05-16T05:50:22.685Z,0.73
2023-05-16T05:51:24.205Z,0.72
2023-05-16T05:52:22.665Z,0.80
2023-05-16T05:53:22.688Z,0.81
2023-05-16T05:54:22.740Z,0.83
2023-05-16T05:55:22.802Z,0.88
2023-05-16T05:56:22.806Z,0.91
2023-05-16T05:57:22.808Z,0.92
2023-05-16T05:58:22.816Z,0.95
2023-05-16T05:59:22.838Z,1.03
2023-05-16T06:00:22.862Z,1.04
2023-05-16T06:01:22.944Z,0.97
2023-05-16T06:02:22.929Z,0.98
2023-05-16T06:03:23.139Z,0.90
2023-05-16T06:04:23.116Z,0.86
2023-05-16T06:05:22.985Z,0.84
2023-05-16T06:06:23.004Z,0.81
2023-05-16T06:07:23.085Z,0.75
2023-05-16T06:08:23.120Z,0.77
2023-05-16T06:09:23.078Z,0.78
2023-05-16T06:10:23.101Z,0.76
2023-05-16T06:11:23.125Z,0.75
2023-05-16T06:12:23.167Z,0.77
2023-05-16T06:13:23.186Z,0.79
2023-05-16T06:14:23.163Z,0.81
2023-05-16T06:15:23.190Z,0.80
2023-05-16T06:16:23.173Z,0.81
2023-05-16T06:17:23.213Z,0.84
2023-05-16T06:18:23.301Z,0.87
2023-05-16T06:19:23.221Z,0.86
2023-05-16T06:20:23.219Z,0.88
2023-05-16T06:21:23.279Z,0.89
2023-05-16T06:22:23.314Z,0.92
2023-05-16T06:23:23.332Z,0.93
2023-05-16T06:24:23.427Z,0.98
2023-05-16T06:25:23.464Z,0.99
2023-05-16T06:26:23.504Z,0.96
2023-05-16T06:27:23.540Z,0.99
2023-05-16T06:28:23.629Z,1.02
2023-05-16T06:29:23.641Z,1.03
2023-05-16T06:30:23.738Z,1.03
2023-05-16T06:31:23.838Z,1.04
2023-05-16T06:32:23.863Z,1.03
2023-05-16T06:33:23.861Z,1.06
2023-05-16T06:34:23.921Z,1.10
2023-05-16T06:35:23.998Z,1.10
2023-05-16T06:36:24.040Z,1.10
2023-05-16T06:37:24.062Z,1.08
2023-05-16T06:38:24.137Z,1.10
2023-05-16T06:39:24.231Z,1.15
2023-05-16T06:40:24.205Z,1.15
2023-05-16T06:41:25.156Z,1.13
2023-05-16T06:42:24.279Z,1.09
2023-05-16T06:43:24.310Z,1.07
2023-05-16T06:44:24.379Z,1.07
2023-05-16T06:45:24.409Z,1.07
2023-05-16T06:46:24.532Z,1.06
2023-05-16T06:47:24.558Z,1.06
2023-05-16T06:48:24.618Z,1.09
2023-05-16T06:49:24.605Z,1.10
2023-05-16T06:50:24.618Z,1.08
2023-05-16T06:51:24.832Z,1.08
2023-05-16T06:52:24.665Z,1.08
2023-05-16T06:53:24.741Z,1.09
2023-05-16T06:54:24.793Z,1.11
2023-05-16T06:55:24.969Z,1.12
2023-05-16T06:56:24.851Z,1.14
2023-05-16T06:57:24.845Z,1.12
2023-05-16T06:58:24.877Z,1.16
2023-05-16T06:59:26.892Z,1.16
2023-05-16T07:00:24.921Z,1.16
2023-05-16T07:01:25.013Z,1.16
2023-05-16T07:02:24.990Z,1.18
2023-05-16T07:03:25.070Z,1.14
2023-05-16T07:04:24.897Z,1.18
2023-05-16T07:05:24.989Z,1.19
2023-05-16T07:06:24.919Z,1.23
2023-05-16T07:07:24.904Z,1.21
2023-05-16T07:08:24.862Z,1.22
2023-05-16T07:09:24.878Z,1.23
2023-05-16T07:10:24.855Z,1.25
2023-05-16T07:11:24.855Z,1.22
2023-05-16T07:12:25.657Z,1.22
2023-05-16T07:13:24.830Z,1.21
2023-05-16T07:14:24.867Z,1.23
2023-05-16T07:15:25.805Z,1.24
2023-05-16T07:16:24.844Z,1.22
2023-05-16T07:17:24.937Z,1.25
2023-05-16T07:18:24.821Z,1.24
2023-05-16T07:19:24.999Z,1.23
2023-05-16T07:20:24.792Z,1.23
2023-05-16T07:21:24.783Z,1.23
2023-05-16T07:22:24.805Z,1.22
2023-05-16T07:23:24.877Z,1.21
2023-05-16T07:24:24.837Z,1.22
2023-05-16T07:25:24.901Z,1.23
2023-05-16T07:26:25.200Z,1.23
2023-05-16T07:27:24.784Z,1.23
2023-05-16T07:28:24.755Z,1.23
2023-05-16T07:29:25.694Z,1.23
2023-05-16T07:30:24.798Z,1.19
2023-05-16T07:31:24.829Z,1.17
2023-05-16T07:32:24.767Z,1.17
2023-05-16T07:33:24.749Z,1.20
2023-05-16T07:34:24.731Z,1.19
2023-05-16T07:35:24.768Z,1.07
2023-05-16T07:36:25.209Z,1.06
2023-05-16T07:37:24.723Z,0.98
2023-05-16T07:38:24.701Z,0.98
2023-05-16T07:39:24.972Z,0.99
2023-05-16T07:40:24.675Z,1.01
2023-05-16T07:41:24.685Z,1.03
2023-05-16T07:42:24.653Z,1.05
2023-05-16T07:43:24.640Z,1.03
2023-05-16T07:44:24.707Z,1.07
2023-05-16T07:45:24.717Z,1.06
2023-05-16T07:46:24.745Z,1.08
2023-05-16T07:47:24.677Z,1.08
2023-05-16T07:48:24.612Z,1.08
2023-05-16T07:49:24.614Z,1.12
2023-05-16T07:50:24.640Z,1.12
2023-05-16T07:51:24.687Z,1.12
2023-05-16T07:52:24.589Z,1.14
2023-05-16T07:53:24.609Z,1.13
2023-05-16T07:54:24.673Z,1.16
2023-05-16T07:55:24.713Z,1.18
2023-05-16T07:56:24.604Z,1.14
2023-05-16T07:57:25.092Z,1.13
2023-05-16T07:58:24.556Z,1.16
2023-05-16T07:59:24.646Z,1.15
2023-05-16T08:00:24.601Z,1.13
2023-05-16T08:01:24.690Z,1.09
2023-05-16T08:02:24.819Z,1.03
2023-05-16T08:03:24.934Z,0.99
2023-05-16T08:04:24.742Z,0.98
2023-05-16T08:05:24.947Z,0.94
2023-05-16T08:06:24.836Z,0.92
2023-05-16T08:07:24.838Z,0.89
2023-05-16T08:08:24.874Z,0.90
2023-05-16T08:09:24.912Z,0.89
2023-05-16T08:10:24.982Z,0.90
2023-05-16T08:11:25.009Z,0.88
2023-05-16T08:12:25.016Z,0.90
2023-05-16T08:13:25.040Z,0.91
2023-05-16T08:14:25.090Z,0.91
2023-05-16T08:15:25.405Z,0.93
2023-05-16T08:16:25.213Z,0.94
2023-05-16T08:17:25.258Z,0.96
2023-05-16T08:18:25.217Z,0.97
2023-05-16T08:19:25.305Z,0.98
2023-05-16T08:20:25.316Z,0.99
2023-05-16T08:21:25.339Z,1.00
2023-05-16T08:22:25.388Z,1.00
2023-05-16T08:23:25.410Z,1.01
2023-05-16T08:24:25.481Z,1.03
2023-05-16T08:25:25.836Z,1.08
2023-05-16T08:26:25.523Z,1.07
2023-05-16T08:27:25.583Z,1.11
2023-05-16T08:28:25.807Z,1.16
2023-05-16T08:29:25.817Z,1.17
2023-05-16T08:30:25.644Z,1.18
2023-05-16T08:31:25.733Z,1.19
2023-05-16T08:32:25.722Z,1.22
2023-05-16T08:33:25.723Z,1.19
2023-05-16T08:34:25.766Z,1.20
2023-05-16T08:35:26.062Z,1.18
2023-05-16T08:36:25.807Z,1.16
2023-05-16T08:37:26.696Z,1.18
2023-05-16T08:38:25.878Z,1.20
2023-05-16T08:39:25.941Z,1.18
2023-05-16T08:40:25.957Z,1.17
2023-05-16T08:41:26.237Z,1.15
2023-05-16T08:42:26.054Z,1.11
2023-05-16T08:43:26.055Z,1.10
2023-05-16T08:44:26.058Z,1.12
2023-05-16T08:45:26.442Z,1.10
2023-05-16T08:46:26.189Z,1.14
2023-05-16T08:47:26.179Z,1.16
2023-05-16T08:48:26.237Z,1.18
2023-05-16T08:49:26.207Z,1.19
2023-05-16T08:50:26.242Z,1.24
2023-05-16T08:51:26.285Z,1.27
2023-05-16T08:52:26.325Z,1.28
2023-05-16T08:53:27.744Z,1.31
2023-05-16T08:54:27.979Z,1.33
2023-05-16T08:55:26.466Z,1.34
2023-05-16T08:56:26.385Z,1.38
2023-05-16T08:57:26.428Z,1.41
2023-05-16T08:58:28.358Z,1.42
2023-05-16T08:59:26.456Z,1.44
2023-05-16T09:00:26.467Z,1.46
2023-05-16T09:01:27.313Z,1.48
2023-05-16T09:02:26.632Z,1.47
2023-05-16T09:03:26.587Z,1.55
2023-05-16T09:04:26.636Z,1.57
2023-05-16T09:05:26.848Z,1.53
2023-05-16T09:06:26.742Z,1.58
2023-05-16T09:07:26.751Z,1.56
2023-05-16T09:08:26.611Z,1.57
2023-05-16T09:09:26.713Z,1.38
2023-05-16T09:10:26.675Z,1.45
2023-05-16T09:11:26.707Z,1.46
2023-05-16T09:12:26.693Z,1.36
2023-05-16T09:13:26.700Z,1.21
2023-05-16T09:14:26.791Z,1.18
2023-05-16T09:15:27.046Z,1.06
2023-05-16T09:16:26.806Z,1.04
2023-05-16T09:18:26.862Z,0.87
2023-05-16T09:19:26.834Z,0.83
2023-05-16T09:20:26.835Z,0.81
2023-05-16T09:21:26.890Z,0.74
2023-05-16T09:22:26.949Z,0.65
2023-05-16T09:23:26.948Z,0.64
2023-05-16T09:24:27.084Z,0.61
2023-05-16T09:25:30.939Z,0.55
2023-05-16T09:26:27.044Z,0.55
2023-05-16T09:27:27.019Z,0.55
2023-05-16T09:28:27.025Z,0.55
2023-05-16T09:29:27.052Z,0.54
2023-05-16T09:30:27.025Z,0.52
2023-05-16T09:31:27.132Z,0.52
2023-05-16T09:32:27.020Z,0.50
2023-05-16T09:33:27.017Z,0.50
2023-05-16T09:34:27.017Z,0.50
2023-05-16T09:36:26.984Z,0.51
2023-05-16T09:37:26.951Z,0.52
2023-05-16T09:38:26.950Z,0.54
2023-05-16T09:39:26.936Z,0.55
2023-05-16T09:40:26.957Z,0.53
2023-05-16T09:41:27.256Z,0.51
2023-05-16T09:42:26.927Z,0.52
2023-05-16T09:43:27.934Z,0.50
2023-05-16T09:44:26.915Z,0.51
2023-05-16T09:45:27.134Z,0.49
2023-05-16T09:46:27.310Z,0.50
2023-05-16T09:47:26.897Z,0.50
2023-05-16T09:48:26.868Z,0.50
2023-05-16T09:49:26.881Z,0.51
2023-05-16T09:50:26.884Z,0.50
2023-05-16T09:51:26.891Z,0.51
2023-05-16T09:52:26.841Z,0.50
2023-05-16T09:53:26.829Z,0.50
2023-05-16T09:54:26.830Z,0.50
2023-05-16T09:55:26.977Z,0.52
2023-05-16T09:56:26.837Z,0.50
2023-05-16T09:57:26.835Z,0.50
2023-05-16T09:58:26.806Z,0.51
2023-05-16T09:59:27.257Z,0.51
2023-05-16T10:00:26.808Z,0.53
2023-05-16T10:01:26.789Z,0.51
2023-05-16T10:02:26.820Z,0.51
2023-05-16T10:03:26.852Z,0.51
2023-05-16T10:04:27.763Z,0.51
2023-05-16T10:05:27.106Z,0.50
2023-05-16T10:06:26.795Z,0.52
2023-05-16T10:07:26.733Z,0.55
2023-05-16T10:08:26.737Z,0.58
2023-05-16T10:09:26.730Z,0.59
2023-05-16T10:10:26.744Z,0.61
2023-05-16T10:11:26.796Z,0.64
2023-05-16T10:12:26.708Z,0.68
2023-05-16T10:13:26.712Z,0.68
2023-05-16T10:14:26.737Z,0.71
2023-05-16T10:15:27.027Z,0.69
2023-05-16T10:16:26.729Z,0.72
2023-05-16T10:17:26.673Z,0.72
2023-05-16T10:18:26.720Z,0.74
2023-05-16T10:19:26.757Z,0.74
2023-05-16T10:20:26.672Z,0.75
2023-05-16T10:21:26.661Z,0.75
2023-05-16T10:22:26.651Z,0.75
2023-05-16T10:23:26.682Z,0.77
2023-05-16T10:24:26.719Z,0.73
2023-05-16T10:25:26.958Z,0.78
2023-05-16T10:26:26.826Z,0.79
2023-05-16T10:27:26.614Z,0.75
2023-05-16T10:28:26.700Z,0.91
2023-05-16T10:29:26.685Z,0.95
2023-05-16T10:30:27.280Z,1.04
2023-05-16T10:31:27.306Z,1.10
2023-05-16T10:32:26.954Z,1.25
2023-05-16T10:33:26.933Z,1.28
2023-05-16T10:34:27.464Z,1.42
2023-05-16T10:35:27.112Z,1.49
2023-05-16T10:36:26.960Z,1.55
2023-05-16T10:37:27.094Z,1.70
2023-05-16T10:38:27.074Z,1.80
2023-05-16T10:39:27.182Z,1.92
2023-05-16T10:40:27.169Z,1.96
2023-05-16T10:41:27.222Z,2.08
2023-05-16T10:42:27.157Z,2.17
2023-05-16T10:43:27.818Z,2.32
2023-05-16T10:44:27.226Z,2.43
2023-05-16T10:45:27.575Z,2.58
2023-05-16T10:46:27.340Z,2.68
2023-05-16T10:47:27.319Z,2.80
2023-05-16T10:48:27.550Z,2.85
2023-05-16T10:49:27.440Z,3.06
2023-05-16T10:50:27.564Z,3.13
2023-05-16T10:51:27.531Z,3.24
2023-05-16T10:52:27.574Z,3.43
2023-05-16T10:53:27.735Z,3.48
2023-05-16T10:54:27.698Z,3.60
2023-05-16T10:55:27.844Z,3.70
2023-05-16T10:56:27.789Z,3.73
2023-05-16T10:57:27.819Z,3.92
2023-05-16T10:58:28.777Z,4.03
2023-05-16T10:59:27.930Z,4.01
2023-05-16T11:00:27.987Z,4.14
2023-05-16T11:01:28.227Z,4.21
2023-05-16T11:02:28.127Z,4.30
2023-05-16T11:03:28.528Z,4.39
2023-05-16T11:04:28.781Z,4.52
2023-05-16T11:05:28.352Z,4.47
2023-05-16T11:06:28.257Z,4.53
2023-05-16T11:07:28.274Z,4.73
2023-05-16T11:08:28.302Z,4.75
2023-05-16T11:09:28.500Z,4.86
2023-05-16T11:10:28.418Z,4.87
2023-05-16T11:11:28.433Z,5.08
2023-05-16T11:12:28.458Z,5.14
2023-05-16T11:13:28.503Z,5.31
2023-05-16T11:14:28.544Z,5.40
2023-05-16T11:15:28.892Z,5.49
2023-05-16T11:16:28.751Z,5.59
2023-05-16T11:17:28.770Z,5.86
2023-05-16T11:18:28.716Z,5.81
2023-05-16T11:19:28.729Z,5.76
2023-05-16T11:20:28.783Z,5.75
2023-05-16T11:21:28.770Z,5.62
2023-05-16T11:22:28.902Z,5.61
2023-05-16T11:23:28.848Z,5.61
2023-05-16T11:24:28.888Z,5.64
2023-05-16T11:25:29.071Z,5.53
2023-05-16T11:26:28.958Z,5.47
2023-05-16T11:27:29.006Z,5.43
2023-05-16T11:28:29.062Z,5.44
2023-05-16T11:29:29.106Z,5.51
2023-05-16T11:30:29.195Z,5.37
2023-05-16T11:31:29.285Z,5.39
2023-05-16T11:32:29.336Z,5.47
2023-05-16T11:33:29.371Z,5.43
2023-05-16T11:34:29.376Z,5.33
2023-05-16T11:35:29.765Z,5.35
2023-05-16T11:36:29.451Z,5.31
2023-05-16T11:37:29.507Z,5.18
2023-05-16T11:38:29.587Z,5.07
2023-05-16T11:39:29.558Z,5.24
2023-05-16T11:40:29.573Z,5.23
2023-05-16T11:41:30.799Z,5.00
2023-05-16T11:42:29.634Z,5.14
2023-05-16T11:43:29.623Z,5.30
2023-05-16T11:44:29.645Z,5.09
2023-05-16T11:45:29.844Z,5.18
2023-05-16T11:46:29.859Z,5.08
2023-05-16T11:47:29.731Z,5.13
2023-05-16T11:48:36.183Z,5.08
2023-05-16T11:49:30.695Z,5.08
2023-05-16T11:50:29.679Z,5.09
2023-05-16T11:51:29.811Z,5.07
2023-05-16T11:52:29.671Z,5.06
2023-05-16T11:53:29.670Z,5.06
2023-05-16T11:54:29.663Z,5.09
2023-05-16T11:55:41.012Z,4.94
2023-05-16T11:56:30.665Z,4.95
2023-05-16T11:57:29.650Z,4.96
2023-05-16T11:58:29.618Z,4.98
2023-05-16T11:59:29.630Z,5.02
2023-05-16T12:00:29.602Z,4.97
2023-05-16T12:01:30.387Z,4.93
2023-05-16T12:02:29.661Z,4.81
2023-05-16T12:03:29.763Z,4.87
2023-05-16T12:04:29.756Z,4.94
2023-05-16T12:05:29.929Z,4.99
2023-05-16T12:06:29.560Z,4.86
2023-05-16T12:07:29.558Z,4.92
2023-05-16T12:08:29.556Z,4.91
2023-05-16T12:09:29.548Z,4.95
2023-05-16T12:10:29.768Z,4.95
2023-05-16T12:11:29.582Z,4.87
2023-05-16T12:12:29.540Z,4.92
2023-05-16T12:13:29.517Z,4.83
2023-05-16T12:14:29.526Z,4.93
2023-05-16T12:15:30.001Z,4.79
2023-05-16T12:16:29.579Z,4.80
2023-05-16T12:17:29.579Z,4.82
2023-05-16T12:18:29.508Z,4.78
2023-05-16T12:19:29.639Z,4.82
2023-05-16T12:20:29.545Z,4.76
2023-05-16T12:21:29.568Z,4.73
2023-05-16T12:22:29.542Z,4.74
2023-05-16T12:23:29.524Z,4.67
2023-05-16T12:24:30.253Z,4.71
2023-05-16T12:25:30.142Z,4.56
2023-05-16T12:26:29.613Z,4.65
2023-05-16T12:27:29.619Z,4.66
2023-05-16T12:28:29.647Z,4.66
2023-05-16T12:29:29.648Z,4.64
2023-05-16T12:30:30.043Z,4.70
2023-05-16T12:31:31.792Z,4.59
2023-05-16T12:32:29.839Z,4.62
2023-05-16T12:33:29.735Z,4.75
2023-05-16T12:34:29.680Z,4.66
2023-05-16T12:35:29.658Z,4.64
2023-05-16T12:36:29.674Z,4.52
2023-05-16T12:37:29.638Z,4.54
2023-05-16T12:38:29.640Z,4.58
2023-05-16T12:39:29.633Z,4.53
2023-05-16T12:40:29.861Z,4.48
2023-05-16T12:41:29.628Z,4.60
2023-05-16T12:42:29.675Z,4.46
2023-05-16T12:43:29.608Z,4.41
2023-05-16T12:44:29.608Z,4.56
2023-05-16T12:45:29.616Z,4.43
2023-05-16T12:46:30.001Z,4.44
2023-05-16T12:47:29.586Z,4.47
2023-05-16T12:48:29.567Z,4.42
2023-05-16T12:49:29.567Z,4.46
2023-05-16T12:50:29.852Z,4.43
2023-05-16T12:51:29.623Z,4.38
2023-05-16T12:52:29.568Z,4.34
2023-05-16T12:53:29.534Z,4.39
2023-05-16T12:54:29.554Z,4.59
2023-05-16T12:55:29.539Z,4.55
2023-05-16T12:56:29.532Z,4.27
2023-05-16T12:57:29.532Z,4.31
2023-05-16T12:58:29.625Z,4.31
2023-05-16T12:59:29.488Z,4.36
2023-05-16T13:00:29.717Z,4.32
2023-05-16T13:01:29.520Z,4.35
2023-05-16T13:02:29.547Z,4.44
2023-05-16T13:03:29.600Z,4.24
2023-05-16T13:04:29.478Z,4.20
2023-05-16T13:05:29.465Z,4.21
2023-05-16T13:06:34.461Z,4.26
2023-05-16T13:07:30.466Z,4.27
2023-05-16T13:08:29.452Z,4.27
2023-05-16T13:09:32.708Z,4.32
2023-05-16T13:10:29.634Z,4.27
2023-05-16T13:11:29.416Z,4.28
2023-05-16T13:12:29.429Z,4.29
2023-05-16T13:14:30.464Z,4.28
2023-05-16T13:15:29.707Z,4.27
2023-05-16T13:16:29.858Z,4.24
2023-05-16T13:17:29.399Z,4.17
2023-05-16T13:18:29.436Z,4.14
2023-05-16T13:19:29.410Z,4.21
2023-05-16T13:20:29.343Z,4.28
2023-05-16T13:21:29.345Z,4.25